Time,TemperatureF,DewpointF,PressureIn,WindDirection,WindDirectionDegrees,WindSpeedMPH,WindSpeedGustMPH,Humidity,HourlyPrecipIn,Conditions,Clouds,dailyrainin,SoftwareType,DateUTC
2013-02-17 00:00:00,43.4,30.4,30.23,South,171,0.0,0.0,60,0.00,,,0.00,WUHU216DAVISVP2,2013-02-17 06:00:00,
2013-02-17 00:05:00,43.4,30.5,30.23,South,171,0.0,0.0,60,0.00,,,0.00,WUHU216DAVISVP2,2013-02-17 06:05:00,
2013-02-17 00:11:00,43.3,30.4,30.23,South,171,0.0,0.0,60,0.00,,,0.00,WUHU216DAVISVP2,2013-02-17 06:11:00,
2013-02-17 00:16:00,43.1,30.2,30.23,SSE,166,0.0,2.0,60,0.00,,,0.00,WUHU216DAVISVP2,2013-02-17 06:16:00,
2013-02-17 00:21:00,42.3,29.9,30.23,SSE,166,0.0,2.0,61,0.00,,,0.00,WUHU216DAVISVP2,2013-02-17 06:21:00,
2013-02-17 00:26:00,41.9,29.4,30.23,SSE,166,0.0,2.0,61,0.00,,,0.00,WUHU216DAVISVP2,2013-02-17 06:26:00,
2013-02-17 00:31:00,42.6,30.2,30.23,SSE,161,1.0,2.0,61,0.00,,,0.00,WUHU216DAVISVP2,2013-02-17 06:31:00,
2013-02-17 00:36:00,43.6,30.7,30.23,SSE,160,0.0,2.0,60,0.00,,,0.00,WUHU216DAVISVP2,2013-02-17 06:36:00,
2013-02-17 00:41:00,44.1,30.7,30.23,SE,139,0.0,2.0,59,0.00,,,0.00,WUHU216DAVISVP2,2013-02-17 06:41:00,
2013-02-17 00:46:00,44.7,30.9,30.23,SSE,154,0.0,2.0,58,0.00,,,0.00,WUHU216DAVISVP2,2013-02-17 06:46:00,
2013-02-17 00:51:00,45.1,30.8,30.22,SSE,156,0.0,2.0,57,0.00,,,0.00,WUHU216DAVISVP2,2013-02-17 06:51:00,
2013-02-17 00:56:00,45.3,31.0,30.22,SSE,157,1.0,2.0,57,0.00,,,0.00,WUHU216DAVISVP2,2013-02-17 06:56:00,
2013-02-17 01:01:00,45.2,30.9,30.22,SSE,161,0.0,3.0,57,0.00,,,0.00,WUHU216DAVISVP2,2013-02-17 07:01:00,
2013-02-17 01:06:00,45.1,31.2,30.22,SSE,158,1.0,3.0,58,0.00,,,0.00,WUHU216DAVISVP2,2013-02-17 07:06:00,
2013-02-17 01:11:00,44.7,31.3,30.22,SSE,154,1.0,3.0,59,0.00,,,0.00,WUHU216DAVISVP2,2013-02-17 07:11:00,
2013-02-17 01:16:00,44.5,31.1,30.22,SSE,164,0.0,3.0,59,0.00,,,0.00,WUHU216DAVISVP2,2013-02-17 07:16:00,
2013-02-17 01:21:00,44.6,31.6,30.22,SSE,160,1.0,3.0,60,0.00,,,0.00,WUHU216DAVISVP2,2013-02-17 07:21:00,
2013-02-17 01:26:00,44.7,31.7,30.23,SSE,155,1.0,3.0,60,0.00,,,0.00,WUHU216DAVISVP2,2013-02-17 07:26:00,
2013-02-17 01:31:00,44.7,31.7,30.23,SSE,158,2.0,3.0,60,0.00,,,0.00,WUHU216DAVISVP2,2013-02-17 07:31:00,
2013-02-17 01:36:00,45.0,32.4,30.22,SSE,151,2.0,5.0,61,0.00,,,0.00,WUHU216DAVISVP2,2013-02-17 07:36:00,
2013-02-17 01:41:00,45.2,32.5,30.23,SSE,161,2.0,5.0,61,0.00,,,0.00,WUHU216DAVISVP2,2013-02-17 07:41:00,
2013-02-17 01:46:00,45.4,32.7,30.23,SSE,150,3.0,5.0,61,0.00,,,0.00,WUHU216DAVISVP2,2013-02-17 07:46:00,
2013-02-17 01:51:00,45.4,33.2,30.23,SSE,154,0.0,5.0,62,0.00,,,0.00,WUHU216DAVISVP2,2013-02-17 07:51:00,
2013-02-17 01:56:00,45.2,33.4,30.23,South,173,2.0,5.0,63,0.00,,,0.00,WUHU216DAVISVP2,2013-02-17 07:56:00,
2013-02-17 02:01:00,45.2,33.4,30.22,South,189,1.0,5.0,63,0.00,,,0.00,WUHU216DAVISVP2,2013-02-17 08:01:00,
2013-02-17 02:06:00,45.2,33.4,30.22,SSE,164,1.0,5.0,63,0.00,,,0.00,WUHU216DAVISVP2,2013-02-17 08:06:00,
2013-02-17 02:11:00,45.1,33.7,30.22,SSE,152,0.0,5.0,64,0.00,,,0.00,WUHU216DAVISVP2,2013-02-17 08:11:00,
2013-02-17 02:16:00,45.0,33.6,30.22,SSE,162,0.0,5.0,64,0.00,,,0.00,WUHU216DAVISVP2,2013-02-17 08:16:00,
2013-02-17 02:21:00,44.8,33.5,30.22,SSE,166,0.0,4.0,64,0.00,,,0.00,WUHU216DAVISVP2,2013-02-17 08:21:00,
2013-02-17 02:26:00,44.6,33.7,30.22,SSE,155,1.0,4.0,65,0.00,,,0.00,WUHU216DAVISVP2,2013-02-17 08:26:00,
2013-02-17 02:31:00,44.4,33.7,30.21,SSW,197,0.0,4.0,66,0.00,,,0.00,WUHU216DAVISVP2,2013-02-17 08:31:00,
2013-02-17 02:36:00,44.2,33.9,30.21,SSE,166,1.0,3.0,67,0.00,,,0.00,WUHU216DAVISVP2,2013-02-17 08:36:00,
2013-02-17 02:41:00,44.1,33.8,30.21,SE,142,0.0,3.0,67,0.00,,,0.00,WUHU216DAVISVP2,2013-02-17 08:41:00,
2013-02-17 02:46:00,44.0,34.2,30.21,South,177,0.0,3.0,68,0.00,,,0.00,WUHU216DAVISVP2,2013-02-17 08:46:00,
2013-02-17 02:51:00,44.2,34.4,30.21,South,191,0.0,3.0,68,0.00,,,0.00,WUHU216DAVISVP2,2013-02-17 08:51:00,
2013-02-17 02:56:00,44.3,34.1,30.21,SSW,195,0.0,3.0,67,0.00,,,0.00,WUHU216DAVISVP2,2013-02-17 08:56:00,
2013-02-17 03:01:00,44.3,34.1,30.21,SSW,202,0.0,3.0,67,0.00,,,0.00,WUHU216DAVISVP2,2013-02-17 09:01:00,
2013-02-17 03:06:00,44.0,33.8,30.21,SSW,205,0.0,3.0,67,0.00,,,0.00,WUHU216DAVISVP2,2013-02-17 09:06:00,
2013-02-17 03:11:00,43.9,33.7,30.21,SSW,202,0.0,3.0,67,0.00,,,0.00,WUHU216DAVISVP2,2013-02-17 09:11:00,
2013-02-17 03:16:00,43.8,33.6,30.21,SSW,192,0.0,4.0,67,0.00,,,0.00,WUHU216DAVISVP2,2013-02-17 09:16:00,
2013-02-17 03:21:00,43.8,33.6,30.21,SSW,197,0.0,4.0,67,0.00,,,0.00,WUHU216DAVISVP2,2013-02-17 09:21:00,
2013-02-17 03:26:00,43.8,33.6,30.20,SSW,202,0.0,4.0,67,0.00,,,0.00,WUHU216DAVISVP2,2013-02-17 09:26:00,
2013-02-17 03:31:00,43.7,33.6,30.20,SSW,199,1.0,3.0,67,0.00,,,0.00,WUHU216DAVISVP2,2013-02-17 09:31:00,
2013-02-17 03:36:00,43.5,33.4,30.20,South,189,0.0,3.0,67,0.00,,,0.00,WUHU216DAVISVP2,2013-02-17 09:36:00,
2013-02-17 03:41:00,43.4,33.5,30.20,South,189,0.0,3.0,68,0.00,,,0.00,WUHU216DAVISVP2,2013-02-17 09:41:00,
2013-02-17 03:46:00,43.0,33.2,30.20,SSW,210,0.0,3.0,68,0.00,,,0.00,WUHU216DAVISVP2,2013-02-17 09:46:00,
2013-02-17 03:51:00,42.7,33.2,30.20,SSW,210,0.0,1.0,69,0.00,,,0.00,WUHU216DAVISVP2,2013-02-17 09:51:00,
2013-02-17 03:56:00,42.2,32.8,30.20,SSW,210,0.0,1.0,69,0.00,,,0.00,WUHU216DAVISVP2,2013-02-17 09:56:00,
2013-02-17 04:01:00,41.8,32.8,30.20,SSW,210,0.0,1.0,70,0.00,,,0.00,WUHU216DAVISVP2,2013-02-17 10:01:00,
2013-02-17 04:06:00,41.3,32.7,30.20,SSW,210,0.0,0.0,71,0.00,,,0.00,WUHU216DAVISVP2,2013-02-17 10:06:00,
2013-02-17 04:11:00,40.9,32.6,30.20,SSW,210,0.0,0.0,72,0.00,,,0.00,WUHU216DAVISVP2,2013-02-17 10:11:00,
2013-02-17 04:16:00,40.5,32.6,30.20,SSW,210,0.0,0.0,73,0.00,,,0.00,WUHU216DAVISVP2,2013-02-17 10:16:00,
2013-02-17 04:21:00,40.1,32.5,30.20,SSW,210,0.0,0.0,74,0.00,,,0.00,WUHU216DAVISVP2,2013-02-17 10:21:00,
2013-02-17 04:26:00,39.8,31.9,30.20,SSW,210,0.0,0.0,73,0.00,,,0.00,WUHU216DAVISVP2,2013-02-17 10:26:00,
2013-02-17 04:31:00,39.5,32.0,30.20,SSW,210,0.0,0.0,74,0.00,,,0.00,WUHU216DAVISVP2,2013-02-17 10:31:00,
2013-02-17 04:36:00,39.3,31.8,30.20,SSW,210,0.0,0.0,74,0.00,,,0.00,WUHU216DAVISVP2,2013-02-17 10:36:00,
2013-02-17 04:41:00,39.0,31.8,30.20,SSW,210,0.0,0.0,75,0.00,,,0.00,WUHU216DAVISVP2,2013-02-17 10:41:00,
2013-02-17 04:46:00,38.7,31.8,30.20,SSW,210,0.0,0.0,76,0.00,,,0.00,WUHU216DAVISVP2,2013-02-17 10:46:00,
2013-02-17 04:51:00,38.2,31.3,30.20,SSW,210,0.0,0.0,76,0.00,,,0.00,WUHU216DAVISVP2,2013-02-17 10:51:00,
2013-02-17 04:56:00,37.7,30.8,30.20,SSW,210,0.0,0.0,76,0.00,,,0.00,WUHU216DAVISVP2,2013-02-17 10:56:00,
2013-02-17 05:01:00,37.1,30.6,30.20,SSW,209,0.0,0.0,77,0.00,,,0.00,WUHU216DAVISVP2,2013-02-17 11:01:00,
2013-02-17 05:06:00,36.7,30.5,30.20,SSW,209,0.0,0.0,78,0.00,,,0.00,WUHU216DAVISVP2,2013-02-17 11:06:00,
2013-02-17 05:11:00,36.4,30.2,30.20,SSW,209,0.0,0.0,78,0.00,,,0.00,WUHU216DAVISVP2,2013-02-17 11:11:00,
2013-02-17 05:16:00,36.0,30.4,30.20,SSW,209,0.0,0.0,80,0.00,,,0.00,WUHU216DAVISVP2,2013-02-17 11:16:00,
2013-02-17 05:21:00,36.1,30.5,30.20,SSW,209,0.0,0.0,80,0.00,,,0.00,WUHU216DAVISVP2,2013-02-17 11:21:00,
2013-02-17 05:26:00,35.8,29.9,30.20,SSW,209,0.0,0.0,79,0.00,,,0.00,WUHU216DAVISVP2,2013-02-17 11:26:00,
2013-02-17 05:31:00,35.7,30.4,30.20,SSW,209,0.0,0.0,81,0.00,,,0.00,WUHU216DAVISVP2,2013-02-17 11:31:00,
2013-02-17 05:36:00,35.8,30.8,30.20,SSW,209,0.0,0.0,82,0.00,,,0.00,WUHU216DAVISVP2,2013-02-17 11:36:00,
2013-02-17 05:41:00,35.7,30.4,30.20,SSW,209,0.0,0.0,81,0.00,,,0.00,WUHU216DAVISVP2,2013-02-17 11:41:00,
2013-02-17 05:46:00,35.5,30.0,30.20,SSW,209,0.0,0.0,80,0.00,,,0.00,WUHU216DAVISVP2,2013-02-17 11:46:00,
2013-02-17 05:51:00,35.0,29.8,30.20,SSW,209,0.0,0.0,81,0.00,,,0.00,WUHU216DAVISVP2,2013-02-17 11:51:00,
2013-02-17 05:56:00,34.8,30.2,30.20,SSW,212,0.0,0.0,83,0.00,,,0.00,WUHU216DAVISVP2,2013-02-17 11:56:00,
2013-02-17 06:01:00,34.4,29.8,30.20,SSW,212,0.0,0.0,83,0.00,,,0.00,WUHU216DAVISVP2,2013-02-17 12:01:00,
2013-02-17 06:06:00,34.2,29.6,30.20,SSW,212,0.0,0.0,83,0.00,,,0.00,WUHU216DAVISVP2,2013-02-17 12:06:00,
2013-02-17 06:11:00,33.9,29.3,30.20,SSW,212,0.0,0.0,83,0.00,,,0.00,WUHU216DAVISVP2,2013-02-17 12:11:00,
2013-02-17 06:16:00,33.9,29.6,30.20,SSW,212,0.0,0.0,84,0.00,,,0.00,WUHU216DAVISVP2,2013-02-17 12:16:00,
2013-02-17 06:21:00,33.8,29.7,30.20,SSW,212,0.0,0.0,85,0.00,,,0.00,WUHU216DAVISVP2,2013-02-17 12:21:00,
2013-02-17 06:26:00,33.8,29.7,30.20,SSW,212,0.0,0.0,85,0.00,,,0.00,WUHU216DAVISVP2,2013-02-17 12:26:00,
2013-02-17 06:31:00,33.5,28.9,30.20,SSW,212,0.0,0.0,83,0.00,,,0.00,WUHU216DAVISVP2,2013-02-17 12:31:00,
2013-02-17 06:36:00,33.7,29.9,30.20,SSW,212,0.0,0.0,86,0.00,,,0.00,WUHU216DAVISVP2,2013-02-17 12:36:00,
2013-02-17 06:41:00,33.9,29.8,30.20,SSW,212,0.0,0.0,85,0.00,,,0.00,WUHU216DAVISVP2,2013-02-17 12:41:00,
2013-02-17 06:46:00,33.9,29.3,30.20,SSW,212,0.0,0.0,83,0.00,,,0.00,WUHU216DAVISVP2,2013-02-17 12:46:00,
2013-02-17 06:51:00,33.8,29.5,30.20,SSW,212,0.0,0.0,84,0.00,,,0.00,WUHU216DAVISVP2,2013-02-17 12:51:00,
2013-02-17 06:56:00,33.5,28.6,30.20,SSW,212,0.0,0.0,82,0.00,,,0.00,WUHU216DAVISVP2,2013-02-17 12:56:00,
2013-02-17 07:01:00,33.2,28.3,30.21,SSW,212,0.0,0.0,82,0.00,,,0.00,WUHU216DAVISVP2,2013-02-17 13:01:00,
2013-02-17 07:06:00,32.8,28.2,30.21,SSW,212,0.0,0.0,83,0.00,,,0.00,WUHU216DAVISVP2,2013-02-17 13:06:00,
2013-02-17 07:11:00,32.6,28.3,30.21,SSW,212,0.0,0.0,84,0.00,,,0.00,WUHU216DAVISVP2,2013-02-17 13:11:00,
2013-02-17 07:16:00,32.6,28.6,30.21,SSW,212,0.0,0.0,85,0.00,,,0.00,WUHU216DAVISVP2,2013-02-17 13:16:00,
2013-02-17 07:21:00,32.6,28.6,30.21,SSW,212,0.0,0.0,85,0.00,,,0.00,WUHU216DAVISVP2,2013-02-17 13:21:00,
2013-02-17 07:26:00,32.5,28.8,30.21,SSW,212,0.0,0.0,86,0.00,,,0.00,WUHU216DAVISVP2,2013-02-17 13:26:00,
2013-02-17 07:31:00,32.5,28.8,30.21,SSW,212,0.0,0.0,86,0.00,,,0.00,WUHU216DAVISVP2,2013-02-17 13:31:00,
2013-02-17 07:36:00,32.6,29.2,30.21,SSW,212,0.0,0.0,87,0.00,,,0.00,WUHU216DAVISVP2,2013-02-17 13:36:00,
2013-02-17 07:41:00,32.9,29.7,30.21,SSW,212,0.0,0.0,88,0.00,,,0.00,WUHU216DAVISVP2,2013-02-17 13:41:00,
2013-02-17 07:46:00,33.5,30.0,30.21,SSW,212,0.0,0.0,87,0.00,,,0.00,WUHU216DAVISVP2,2013-02-17 13:46:00,
2013-02-17 07:51:00,34.4,30.6,30.21,SSW,212,0.0,0.0,86,0.00,,,0.00,WUHU216DAVISVP2,2013-02-17 13:51:00,
2013-02-17 07:56:00,35.7,31.9,30.21,SSW,212,0.0,0.0,86,0.00,,,0.00,WUHU216DAVISVP2,2013-02-17 13:56:00,
2013-02-17 08:01:00,37.1,33.0,30.21,SSW,212,0.0,0.0,85,0.00,,,0.00,WUHU216DAVISVP2,2013-02-17 14:01:00,
2013-02-17 08:07:00,38.4,34.3,30.21,WNW,283,0.0,0.0,85,0.00,,,0.00,WUHU216DAVISVP2,2013-02-17 14:07:00,
2013-02-17 08:12:00,39.8,34.8,30.21,WNW,283,0.0,0.0,82,0.00,,,0.00,WUHU216DAVISVP2,2013-02-17 14:12:00,
2013-02-17 08:17:00,41.2,35.8,30.22,WNW,283,0.0,0.0,81,0.00,,,0.00,WUHU216DAVISVP2,2013-02-17 14:17:00,
2013-02-17 08:22:00,42.3,35.3,30.22,WNW,283,0.0,0.0,76,0.00,,,0.00,WUHU216DAVISVP2,2013-02-17 14:22:00,
2013-02-17 08:27:00,43.3,35.0,30.22,WNW,283,0.0,0.0,72,0.00,,,0.00,WUHU216DAVISVP2,2013-02-17 14:27:00,
2013-02-17 08:32:00,44.3,34.9,30.22,West,260,0.0,1.0,69,0.00,,,0.00,WUHU216DAVISVP2,2013-02-17 14:32:00,
2013-02-17 08:37:00,45.4,35.2,30.22,SSE,156,0.0,2.0,67,0.00,,,0.00,WUHU216DAVISVP2,2013-02-17 14:37:00,
2013-02-17 08:42:00,46.2,35.8,30.22,SSE,156,0.0,2.0,67,0.00,,,0.00,WUHU216DAVISVP2,2013-02-17 14:42:00,
2013-02-17 08:47:00,46.7,35.9,30.22,SSE,162,0.0,2.0,66,0.00,,,0.00,WUHU216DAVISVP2,2013-02-17 14:47:00,
2013-02-17 08:52:00,47.0,36.2,30.22,SSE,158,2.0,2.0,66,0.00,,,0.00,WUHU216DAVISVP2,2013-02-17 14:52:00,
2013-02-17 08:57:00,47.3,36.2,30.22,SW,223,0.0,2.0,65,0.00,,,0.00,WUHU216DAVISVP2,2013-02-17 14:57:00,
2013-02-17 09:02:00,47.8,37.1,30.22,SE,132,1.0,3.0,66,0.00,,,0.00,WUHU216DAVISVP2,2013-02-17 15:02:00,
2013-02-17 09:07:00,48.6,37.1,30.22,SE,127,0.0,3.0,64,0.00,,,0.00,WUHU216DAVISVP2,2013-02-17 15:07:00,
2013-02-17 09:12:00,49.3,37.7,30.22,South,189,0.0,4.0,64,0.00,,,0.00,WUHU216DAVISVP2,2013-02-17 15:12:00,
2013-02-17 09:17:00,50.1,38.5,30.22,SE,130,2.0,5.0,64,0.00,,,0.00,WUHU216DAVISVP2,2013-02-17 15:17:00,
2013-02-17 09:22:00,50.7,39.1,30.22,SSE,163,2.0,5.0,64,0.00,,,0.00,WUHU216DAVISVP2,2013-02-17 15:22:00,
2013-02-17 09:27:00,51.4,38.5,30.22,SE,143,2.0,5.0,61,0.00,,,0.00,WUHU216DAVISVP2,2013-02-17 15:27:00,
2013-02-17 09:32:00,51.6,39.9,30.22,South,181,3.0,6.0,64,0.00,,,0.00,WUHU216DAVISVP2,2013-02-17 15:32:00,
2013-02-17 09:37:00,52.1,40.0,30.22,SSE,157,4.0,6.0,63,0.00,,,0.00,WUHU216DAVISVP2,2013-02-17 15:37:00,
2013-02-17 09:42:00,53.0,38.7,30.22,SE,143,2.0,6.0,58,0.00,,,0.00,WUHU216DAVISVP2,2013-02-17 15:42:00,
2013-02-17 09:47:00,54.1,38.8,30.22,SE,145,2.0,6.0,56,0.00,,,0.00,WUHU216DAVISVP2,2013-02-17 15:47:00,
2013-02-17 09:52:00,54.6,39.3,30.22,SE,131,4.0,7.0,56,0.00,,,0.00,WUHU216DAVISVP2,2013-02-17 15:52:00,
2013-02-17 09:58:00,55.4,39.1,30.22,SE,140,3.0,7.0,54,0.00,,,0.00,WUHU216DAVISVP2,2013-02-17 15:58:00,
2013-02-17 10:03:00,55.9,39.5,30.21,SSE,162,1.0,7.0,54,0.00,,,0.00,WUHU216DAVISVP2,2013-02-17 16:03:00,
2013-02-17 10:08:00,56.2,38.8,30.21,SSE,154,2.0,7.0,52,0.00,,,0.00,WUHU216DAVISVP2,2013-02-17 16:08:00,
2013-02-17 10:13:00,56.6,39.2,30.21,South,170,2.0,10.0,52,0.00,,,0.00,WUHU216DAVISVP2,2013-02-17 16:13:00,
2013-02-17 10:18:00,56.7,38.3,30.21,SE,135,8.0,11.0,50,0.00,,,0.00,WUHU216DAVISVP2,2013-02-17 16:18:00,
2013-02-17 10:23:00,56.7,39.3,30.21,South,183,0.0,11.0,52,0.00,,,0.00,WUHU216DAVISVP2,2013-02-17 16:23:00,
2013-02-17 10:28:00,57.5,39.5,30.22,SSE,152,4.0,11.0,51,0.00,,,0.00,WUHU216DAVISVP2,2013-02-17 16:28:00,
2013-02-17 10:33:00,57.8,39.3,30.22,South,183,4.0,11.0,50,0.00,,,0.00,WUHU216DAVISVP2,2013-02-17 16:33:00,
2013-02-17 10:38:00,59.0,39.8,30.21,SSE,155,4.0,9.0,49,0.00,,,0.00,WUHU216DAVISVP2,2013-02-17 16:38:00,
2013-02-17 10:43:00,59.6,39.3,30.21,SSE,161,6.0,10.0,47,0.00,,,0.00,WUHU216DAVISVP2,2013-02-17 16:43:00,
2013-02-17 10:48:00,60.0,40.8,30.21,SE,139,3.0,10.0,49,0.00,,,0.00,WUHU216DAVISVP2,2013-02-17 16:48:00,
2013-02-17 10:53:00,60.7,39.7,30.21,SSE,156,3.0,10.0,46,0.00,,,0.00,WUHU216DAVISVP2,2013-02-17 16:53:00,
2013-02-17 10:58:00,61.3,40.3,30.20,South,179,4.0,9.0,46,0.00,,,0.00,WUHU216DAVISVP2,2013-02-17 16:58:00,
2013-02-17 11:03:00,61.8,40.2,30.20,SE,138,4.0,9.0,45,0.00,,,0.00,WUHU216DAVISVP2,2013-02-17 17:03:00,
2013-02-17 11:08:00,62.4,39.5,30.20,SSE,162,3.0,9.0,43,0.00,,,0.00,WUHU216DAVISVP2,2013-02-17 17:08:00,
2013-02-17 11:13:00,62.7,39.2,30.19,SSE,162,4.0,9.0,42,0.00,,,0.00,WUHU216DAVISVP2,2013-02-17 17:13:00,
2013-02-17 11:18:00,62.9,38.1,30.19,SSE,152,4.0,12.0,40,0.00,,,0.00,WUHU216DAVISVP2,2013-02-17 17:18:00,
2013-02-17 11:23:00,63.1,38.9,30.19,SSE,167,4.0,12.0,41,0.00,,,0.00,WUHU216DAVISVP2,2013-02-17 17:23:00,
2013-02-17 11:28:00,63.4,38.5,30.19,South,182,4.0,12.0,40,0.00,,,0.00,WUHU216DAVISVP2,2013-02-17 17:28:00,
2013-02-17 11:33:00,63.8,37.5,30.19,SSE,159,2.0,12.0,38,0.00,,,0.00,WUHU216DAVISVP2,2013-02-17 17:33:00,
2013-02-17 11:38:00,64.4,37.5,30.18,South,179,5.0,11.0,37,0.00,,,0.00,WUHU216DAVISVP2,2013-02-17 17:38:00,
2013-02-17 11:43:00,64.1,38.6,30.18,SE,128,7.0,11.0,39,0.00,,,0.00,WUHU216DAVISVP2,2013-02-17 17:43:00,
2013-02-17 11:48:00,64.7,39.2,30.18,SE,146,3.0,11.0,39,0.00,,,0.00,WUHU216DAVISVP2,2013-02-17 17:48:00,
2013-02-17 11:53:00,64.6,38.2,30.17,SSE,161,2.0,12.0,38,0.00,,,0.00,WUHU216DAVISVP2,2013-02-17 17:53:00,
2013-02-17 11:58:00,64.5,38.8,30.17,SSE,168,5.0,13.0,39,0.00,,,0.00,WUHU216DAVISVP2,2013-02-17 17:58:00,
2013-02-17 12:03:00,64.8,39.1,30.17,SSW,198,4.0,13.0,39,0.00,,,0.00,WUHU216DAVISVP2,2013-02-17 18:03:00,
2013-02-17 12:08:00,65.3,39.5,30.17,SE,138,6.0,13.0,39,0.00,,,0.00,WUHU216DAVISVP2,2013-02-17 18:08:00,
2013-02-17 12:13:00,65.7,39.2,30.16,SE,134,5.0,13.0,38,0.00,,,0.00,WUHU216DAVISVP2,2013-02-17 18:13:00,
2013-02-17 12:18:00,66.2,40.4,30.15,ESE,123,4.0,10.0,39,0.00,,,0.00,WUHU216DAVISVP2,2013-02-17 18:18:00,
2013-02-17 12:23:00,67.2,40.6,30.15,SE,145,3.0,8.0,38,0.00,,,0.00,WUHU216DAVISVP2,2013-02-17 18:23:00,
2013-02-17 12:28:00,67.6,39.5,30.14,SE,140,6.0,9.0,36,0.00,,,0.00,WUHU216DAVISVP2,2013-02-17 18:28:00,
2013-02-17 12:33:00,67.6,40.4,30.14,SE,141,6.0,9.0,37,0.00,,,0.00,WUHU216DAVISVP2,2013-02-17 18:33:00,
2013-02-17 12:38:00,67.8,39.9,30.14,SSE,165,6.0,9.0,36,0.00,,,0.00,WUHU216DAVISVP2,2013-02-17 18:38:00,
2013-02-17 12:43:00,67.9,39.0,30.13,SSE,156,8.0,12.0,35,0.00,,,0.00,WUHU216DAVISVP2,2013-02-17 18:43:00,
2013-02-17 12:48:00,67.8,39.7,30.12,SE,129,5.0,16.0,36,0.00,,,0.00,WUHU216DAVISVP2,2013-02-17 18:48:00,
2013-02-17 12:53:00,67.6,38.8,30.12,SSE,162,6.0,16.0,35,0.00,,,0.00,WUHU216DAVISVP2,2013-02-17 18:53:00,
2013-02-17 12:58:00,67.9,39.8,30.11,South,175,5.0,16.0,36,0.00,,,0.00,WUHU216DAVISVP2,2013-02-17 18:58:00,
2013-02-17 13:03:00,68.4,40.2,30.11,SSE,158,5.0,13.0,36,0.00,,,0.00,WUHU216DAVISVP2,2013-02-17 19:03:00,
2013-02-17 13:08:00,68.9,39.2,30.10,SSE,153,5.0,16.0,34,0.00,,,0.00,WUHU216DAVISVP2,2013-02-17 19:08:00,
2013-02-17 13:13:00,68.6,38.9,30.10,SSE,167,3.0,16.0,34,0.00,,,0.00,WUHU216DAVISVP2,2013-02-17 19:13:00,
2013-02-17 13:18:00,69.2,41.1,30.10,SSE,149,5.0,16.0,36,0.00,,,0.00,WUHU216DAVISVP2,2013-02-17 19:18:00,
2013-02-17 13:23:00,69.5,40.6,30.09,SSE,166,3.0,16.0,35,0.00,,,0.00,WUHU216DAVISVP2,2013-02-17 19:23:00,
2013-02-17 13:28:00,69.2,40.2,30.09,SSE,160,5.0,14.0,35,0.00,,,0.00,WUHU216DAVISVP2,2013-02-17 19:28:00,
2013-02-17 13:33:00,69.3,41.0,30.09,SSE,150,5.0,14.0,36,0.00,,,0.00,WUHU216DAVISVP2,2013-02-17 19:33:00,
2013-02-17 13:38:00,69.2,40.9,30.08,SE,128,4.0,14.0,36,0.00,,,0.00,WUHU216DAVISVP2,2013-02-17 19:38:00,
2013-02-17 13:43:00,69.6,42.0,30.08,SSE,152,7.0,12.0,37,0.00,,,0.00,WUHU216DAVISVP2,2013-02-17 19:43:00,
2013-02-17 13:48:00,70.0,41.6,30.07,SE,131,5.0,13.0,36,0.00,,,0.00,WUHU216DAVISVP2,2013-02-17 19:48:00,
2013-02-17 13:53:00,70.1,42.5,30.07,South,174,6.0,13.0,37,0.00,,,0.00,WUHU216DAVISVP2,2013-02-17 19:53:00,
2013-02-17 13:58:00,69.3,41.0,30.07,SE,145,5.0,15.0,36,0.00,,,0.00,WUHU216DAVISVP2,2013-02-17 19:58:00,
2013-02-17 14:03:00,69.5,42.1,30.06,South,175,8.0,15.0,37,0.00,,,0.00,WUHU216DAVISVP2,2013-02-17 20:03:00,
2013-02-17 14:08:00,70.3,42.8,30.06,SSE,156,4.0,15.0,37,0.00,,,0.00,WUHU216DAVISVP2,2013-02-17 20:08:00,
2013-02-17 14:13:00,70.9,42.4,30.06,SE,145,5.0,14.0,36,0.00,,,0.00,WUHU216DAVISVP2,2013-02-17 20:13:00,
2013-02-17 14:18:00,70.3,42.6,30.05,SE,143,8.0,14.0,37,0.00,,,0.00,WUHU216DAVISVP2,2013-02-17 20:18:00,
2013-02-17 14:23:00,70.5,42.8,30.05,SE,125,11.0,14.0,37,0.00,,,0.00,WUHU216DAVISVP2,2013-02-17 20:23:00,
2013-02-17 14:28:00,70.6,42.9,30.04,ESE,102,10.0,15.0,37,0.00,,,0.00,WUHU216DAVISVP2,2013-02-17 20:28:00,
2013-02-17 14:33:00,70.3,42.6,30.04,SE,136,3.0,15.0,37,0.00,,,0.00,WUHU216DAVISVP2,2013-02-17 20:33:00,
2013-02-17 14:38:00,70.3,42.6,30.04,SSE,164,6.0,15.0,37,0.00,,,0.00,WUHU216DAVISVP2,2013-02-17 20:38:00,
2013-02-17 14:43:00,70.5,42.8,30.04,SE,131,4.0,15.0,37,0.00,,,0.00,WUHU216DAVISVP2,2013-02-17 20:43:00,
2013-02-17 14:48:00,70.2,42.7,30.04,SE,136,6.0,15.0,37,0.00,,,0.00,WUHU216DAVISVP2,2013-02-17 20:48:00,
2013-02-17 14:53:00,70.5,43.0,30.04,ESE,120,7.0,16.0,37,0.00,,,0.00,WUHU216DAVISVP2,2013-02-17 20:53:00,
2013-02-17 14:58:00,70.7,43.7,30.03,SE,144,3.0,16.0,38,0.00,,,0.00,WUHU216DAVISVP2,2013-02-17 20:58:00,
2013-02-17 15:03:00,70.8,43.1,30.03,SE,141,7.0,16.0,37,0.00,,,0.00,WUHU216DAVISVP2,2013-02-17 21:03:00,
2013-02-17 15:08:00,70.7,43.0,30.03,South,177,8.0,16.0,37,0.00,,,0.00,WUHU216DAVISVP2,2013-02-17 21:08:00,
2013-02-17 15:13:00,70.7,43.0,30.02,SSE,147,4.0,15.0,37,0.00,,,0.00,WUHU216DAVISVP2,2013-02-17 21:13:00,
2013-02-17 15:18:00,70.7,43.7,30.02,SE,137,14.0,15.0,38,0.00,,,0.00,WUHU216DAVISVP2,2013-02-17 21:18:00,
2013-02-17 15:23:00,70.9,43.2,30.02,ESE,122,4.0,16.0,37,0.00,,,0.00,WUHU216DAVISVP2,2013-02-17 21:23:00,
2013-02-17 15:28:00,71.0,44.0,30.02,SE,143,11.0,16.0,38,0.00,,,0.00,WUHU216DAVISVP2,2013-02-17 21:28:00,
2013-02-17 15:33:00,70.7,44.4,30.01,SSE,149,8.0,16.0,39,0.00,,,0.00,WUHU216DAVISVP2,2013-02-17 21:33:00,
2013-02-17 15:38:00,70.1,43.3,30.01,SSE,159,2.0,16.0,38,0.00,,,0.00,WUHU216DAVISVP2,2013-02-17 21:38:00,
2013-02-17 15:43:00,69.8,44.4,30.01,SE,136,6.0,16.0,40,0.00,,,0.00,WUHU216DAVISVP2,2013-02-17 21:43:00,
2013-02-17 15:48:00,69.8,43.6,30.01,SSE,153,8.0,16.0,39,0.00,,,0.00,WUHU216DAVISVP2,2013-02-17 21:48:00,
2013-02-17 15:53:00,70.0,43.8,30.00,SE,139,7.0,13.0,39,0.00,,,0.00,WUHU216DAVISVP2,2013-02-17 21:53:00,
2013-02-17 15:58:00,69.9,44.4,30.00,SSE,166,4.0,14.0,40,0.00,,,0.00,WUHU216DAVISVP2,2013-02-17 21:58:00,
2013-02-17 16:03:00,69.8,44.3,30.00,ESE,122,5.0,15.0,40,0.00,,,0.00,WUHU216DAVISVP2,2013-02-17 22:03:00,
2013-02-17 16:08:00,69.4,43.9,30.00,SSE,152,9.0,15.0,40,0.00,,,0.00,WUHU216DAVISVP2,2013-02-17 22:08:00,
2013-02-17 16:13:00,69.0,44.2,30.00,SSE,148,4.0,15.0,41,0.00,,,0.00,WUHU216DAVISVP2,2013-02-17 22:13:00,
2013-02-17 16:18:00,68.7,43.9,30.00,South,180,7.0,14.0,41,0.00,,,0.00,WUHU216DAVISVP2,2013-02-17 22:18:00,
2013-02-17 16:23:00,68.8,44.7,30.00,SE,136,5.0,14.0,42,0.00,,,0.00,WUHU216DAVISVP2,2013-02-17 22:23:00,
2013-02-17 16:28:00,69.0,45.5,30.00,SSE,163,8.0,18.0,43,0.00,,,0.00,WUHU216DAVISVP2,2013-02-17 22:28:00,
2013-02-17 16:33:00,68.5,45.7,29.99,SSE,147,7.0,18.0,44,0.00,,,0.00,WUHU216DAVISVP2,2013-02-17 22:33:00,
2013-02-17 16:38:00,68.2,46.0,30.00,ESE,123,8.0,18.0,45,0.00,,,0.00,WUHU216DAVISVP2,2013-02-17 22:38:00,
2013-02-17 16:43:00,68.0,45.8,30.00,SSW,193,5.0,18.0,45,0.00,,,0.00,WUHU216DAVISVP2,2013-02-17 22:43:00,
2013-02-17 16:48:00,67.7,45.6,30.00,ESE,121,13.0,17.0,45,0.00,,,0.00,WUHU216DAVISVP2,2013-02-17 22:48:00,
2013-02-17 16:53:00,67.5,46.0,30.00,SE,141,7.0,17.0,46,0.00,,,0.00,WUHU216DAVISVP2,2013-02-17 22:53:00,
2013-02-17 16:58:00,67.1,46.2,29.99,SE,143,5.0,17.0,47,0.00,,,0.00,WUHU216DAVISVP2,2013-02-17 22:58:00,
2013-02-17 17:03:00,66.9,46.0,29.99,SE,131,7.0,17.0,47,0.00,,,0.00,WUHU216DAVISVP2,2013-02-17 23:03:00,
2013-02-17 17:08:00,66.8,45.9,30.00,SE,129,10.0,17.0,47,0.00,,,0.00,WUHU216DAVISVP2,2013-02-17 23:08:00,
2013-02-17 17:15:00,66.7,45.8,30.00,ESE,113,11.0,17.0,47,0.00,,,0.00,WUHU216DAVISVP2,2013-02-17 23:15:00,
2013-02-17 17:20:00,66.2,45.9,30.00,East,94,10.0,17.0,48,0.00,,,0.00,WUHU216DAVISVP2,2013-02-17 23:20:00,
2013-02-17 17:25:00,65.9,45.7,30.00,SSE,150,4.0,16.0,48,0.00,,,0.00,WUHU216DAVISVP2,2013-02-17 23:25:00,
2013-02-17 17:30:00,65.6,45.9,30.00,SE,135,11.0,17.0,49,0.00,,,0.00,WUHU216DAVISVP2,2013-02-17 23:30:00,
2013-02-17 17:35:00,65.4,45.8,30.00,SE,132,6.0,18.0,49,0.00,,,0.00,WUHU216DAVISVP2,2013-02-17 23:35:00,
2013-02-17 17:40:00,65.3,46.2,30.00,SE,130,8.0,18.0,50,0.00,,,0.00,WUHU216DAVISVP2,2013-02-17 23:40:00,
2013-02-17 17:45:00,65.0,45.9,30.00,ESE,120,8.0,19.0,50,0.00,,,0.00,WUHU216DAVISVP2,2013-02-17 23:45:00,
2013-02-17 17:50:00,64.8,46.3,30.00,SE,125,9.0,19.0,51,0.00,,,0.00,WUHU216DAVISVP2,2013-02-17 23:50:00,
2013-02-17 17:55:00,64.7,46.2,30.00,SSE,150,4.0,19.0,51,0.00,,,0.00,WUHU216DAVISVP2,2013-02-17 23:55:00,
2013-02-17 18:00:00,64.5,46.0,30.00,SE,125,7.0,20.0,51,0.00,,,0.00,WUHU216DAVISVP2,2013-02-18 00:00:00,
2013-02-17 18:05:00,64.4,46.4,30.00,SE,132,10.0,20.0,52,0.00,,,0.00,WUHU216DAVISVP2,2013-02-18 00:05:00,
2013-02-17 18:10:00,64.2,46.3,30.00,SSE,168,6.0,20.0,52,0.00,,,0.00,WUHU216DAVISVP2,2013-02-18 00:10:00,
2013-02-17 18:15:00,64.0,46.6,30.00,SE,143,7.0,20.0,53,0.00,,,0.00,WUHU216DAVISVP2,2013-02-18 00:15:00,
2013-02-17 18:20:00,63.8,46.4,30.00,SE,139,7.0,16.0,53,0.00,,,0.00,WUHU216DAVISVP2,2013-02-18 00:20:00,
2013-02-17 18:25:00,63.8,46.9,30.00,SE,135,6.0,16.0,54,0.00,,,0.00,WUHU216DAVISVP2,2013-02-18 00:25:00,
2013-02-17 18:30:00,63.6,47.2,30.00,East,99,10.0,18.0,55,0.00,,,0.00,WUHU216DAVISVP2,2013-02-18 00:30:00,
2013-02-17 18:35:00,63.5,47.1,30.00,ESE,116,8.0,18.0,55,0.00,,,0.00,WUHU216DAVISVP2,2013-02-18 00:35:00,
2013-02-17 18:40:00,63.4,47.0,30.00,SE,137,7.0,18.0,55,0.00,,,0.00,WUHU216DAVISVP2,2013-02-18 00:40:00,
2013-02-17 18:45:00,63.2,47.3,30.00,ESE,123,10.0,16.0,56,0.00,,,0.00,WUHU216DAVISVP2,2013-02-18 00:45:00,
2013-02-17 18:50:00,63.2,47.8,30.00,SE,127,10.0,17.0,57,0.00,,,0.00,WUHU216DAVISVP2,2013-02-18 00:50:00,
2013-02-17 18:55:00,63.1,47.7,30.00,SE,125,8.0,19.0,57,0.00,,,0.00,WUHU216DAVISVP2,2013-02-18 00:55:00,
2013-02-17 19:00:00,63.0,48.1,30.00,SE,127,6.0,19.0,58,0.00,,,0.00,WUHU216DAVISVP2,2013-02-18 01:00:00,
2013-02-17 19:05:00,63.0,48.1,30.00,ESE,114,5.0,19.0,58,0.00,,,0.00,WUHU216DAVISVP2,2013-02-18 01:05:00,
2013-02-17 19:10:00,62.9,48.0,30.00,South,170,8.0,19.0,58,0.00,,,0.00,WUHU216DAVISVP2,2013-02-18 01:10:00,
2013-02-17 19:15:00,62.8,48.3,30.00,SE,131,6.0,19.0,59,0.00,,,0.00,WUHU216DAVISVP2,2013-02-18 01:15:00,
2013-02-17 19:20:00,62.7,48.3,30.00,SE,135,9.0,19.0,59,0.00,,,0.00,WUHU216DAVISVP2,2013-02-18 01:20:00,
2013-02-17 19:25:00,62.6,48.1,30.00,SE,131,8.0,19.0,59,0.00,,,0.00,WUHU216DAVISVP2,2013-02-18 01:25:00,
2013-02-17 19:30:00,62.4,48.3,30.00,SE,128,8.0,16.0,60,0.00,,,0.00,WUHU216DAVISVP2,2013-02-18 01:30:00,
2013-02-17 19:35:00,62.4,48.3,30.00,SE,137,11.0,16.0,60,0.00,,,0.00,WUHU216DAVISVP2,2013-02-18 01:35:00,
2013-02-17 19:40:00,62.4,48.8,30.00,ESE,120,8.0,15.0,61,0.00,,,0.00,WUHU216DAVISVP2,2013-02-18 01:40:00,
2013-02-17 19:45:00,62.3,48.7,30.00,SE,143,6.0,14.0,61,0.00,,,0.00,WUHU216DAVISVP2,2013-02-18 01:45:00,
2013-02-17 19:50:00,62.3,48.7,30.00,ESE,114,9.0,14.0,61,0.00,,,0.00,WUHU216DAVISVP2,2013-02-18 01:50:00,
2013-02-17 19:55:00,62.3,49.1,30.00,SE,143,9.0,14.0,62,0.00,,,0.00,WUHU216DAVISVP2,2013-02-18 01:55:00,
2013-02-17 20:00:00,62.3,49.1,30.00,ESE,120,7.0,14.0,62,0.00,,,0.00,WUHU216DAVISVP2,2013-02-18 02:00:00,
2013-02-17 20:05:00,62.2,49.0,30.01,SE,139,6.0,14.0,62,0.00,,,0.00,WUHU216DAVISVP2,2013-02-18 02:05:00,
2013-02-17 20:10:00,62.2,49.6,30.01,ESE,116,3.0,13.0,63,0.00,,,0.00,WUHU216DAVISVP2,2013-02-18 02:10:00,
2013-02-17 20:15:00,62.1,49.4,30.01,SE,137,7.0,12.0,63,0.00,,,0.00,WUHU216DAVISVP2,2013-02-18 02:15:00,
2013-02-17 20:20:00,62.1,49.5,30.01,ESE,122,7.0,12.0,63,0.00,,,0.00,WUHU216DAVISVP2,2013-02-18 02:20:00,
2013-02-17 20:25:00,62.0,49.8,30.01,SE,128,6.0,12.0,64,0.00,,,0.00,WUHU216DAVISVP2,2013-02-18 02:25:00,
2013-02-17 20:30:00,62.0,49.8,30.01,ESE,112,8.0,12.0,64,0.00,,,0.00,WUHU216DAVISVP2,2013-02-18 02:30:00,
2013-02-17 20:35:00,62.0,49.8,30.01,SE,137,7.0,12.0,64,0.00,,,0.00,WUHU216DAVISVP2,2013-02-18 02:35:00,
2013-02-17 20:40:00,62.0,49.8,30.01,SE,141,5.0,12.0,64,0.00,,,0.00,WUHU216DAVISVP2,2013-02-18 02:40:00,
2013-02-17 20:45:00,61.9,50.2,30.01,SE,133,5.0,12.0,65,0.00,,,0.00,WUHU216DAVISVP2,2013-02-18 02:45:00,
2013-02-17 20:50:00,61.9,50.2,30.01,SE,128,5.0,12.0,65,0.00,,,0.00,WUHU216DAVISVP2,2013-02-18 02:50:00,
2013-02-17 20:55:00,61.8,50.1,30.01,SE,126,4.0,12.0,65,0.00,,,0.00,WUHU216DAVISVP2,2013-02-18 02:55:00,
2013-02-17 21:00:00,61.8,50.5,30.01,SE,134,4.0,12.0,66,0.00,,,0.00,WUHU216DAVISVP2,2013-02-18 03:00:00,
2013-02-17 21:05:00,61.7,50.4,30.01,SSE,168,4.0,12.0,66,0.00,,,0.00,WUHU216DAVISVP2,2013-02-18 03:05:00,
2013-02-17 21:10:00,61.7,50.4,30.01,SSE,150,4.0,12.0,66,0.00,,,0.00,WUHU216DAVISVP2,2013-02-18 03:10:00,
2013-02-17 21:15:00,61.7,50.4,30.01,SE,129,6.0,12.0,66,0.00,,,0.00,WUHU216DAVISVP2,2013-02-18 03:15:00,
2013-02-17 21:20:00,61.7,50.8,30.01,SE,136,9.0,13.0,67,0.00,,,0.00,WUHU216DAVISVP2,2013-02-18 03:20:00,
2013-02-17 21:25:00,61.7,50.8,30.01,SE,142,6.0,14.0,67,0.00,,,0.00,WUHU216DAVISVP2,2013-02-18 03:25:00,
2013-02-17 21:30:00,61.7,50.8,30.01,ESE,123,5.0,14.0,67,0.00,,,0.00,WUHU216DAVISVP2,2013-02-18 03:30:00,
2013-02-17 21:35:00,61.6,50.7,30.00,ESE,123,7.0,14.0,67,0.00,,,0.00,WUHU216DAVISVP2,2013-02-18 03:35:00,
2013-02-17 21:40:00,61.6,51.1,30.01,SSE,161,5.0,14.0,68,0.00,,,0.00,WUHU216DAVISVP2,2013-02-18 03:40:00,
2013-02-17 21:45:00,61.7,51.2,30.00,SE,131,5.0,12.0,68,0.00,,,0.00,WUHU216DAVISVP2,2013-02-18 03:45:00,
2013-02-17 21:50:00,61.8,51.3,30.00,SE,139,5.0,14.0,68,0.00,,,0.00,WUHU216DAVISVP2,2013-02-18 03:50:00,
2013-02-17 21:55:00,61.8,51.3,30.01,SSE,150,7.0,14.0,68,0.00,,,0.00,WUHU216DAVISVP2,2013-02-18 03:55:00,
2013-02-17 22:00:00,61.8,51.3,30.00,SE,139,5.0,14.0,68,0.00,,,0.00,WUHU216DAVISVP2,2013-02-18 04:00:00,
2013-02-17 22:05:00,61.9,51.4,30.00,SE,139,6.0,12.0,68,0.00,,,0.00,WUHU216DAVISVP2,2013-02-18 04:05:00,
2013-02-17 22:10:00,62.0,51.9,30.00,ESE,121,10.0,11.0,69,0.00,,,0.00,WUHU216DAVISVP2,2013-02-18 04:10:00,
2013-02-17 22:15:00,62.1,52.0,30.00,ESE,122,8.0,11.0,69,0.00,,,0.00,WUHU216DAVISVP2,2013-02-18 04:15:00,
2013-02-17 22:20:00,62.1,52.0,30.00,SSE,167,4.0,12.0,69,0.00,,,0.00,WUHU216DAVISVP2,2013-02-18 04:20:00,
2013-02-17 22:25:00,62.2,52.1,30.00,SSE,150,10.0,14.0,69,0.00,,,0.00,WUHU216DAVISVP2,2013-02-18 04:25:00,
2013-02-17 22:30:00,62.3,52.1,30.00,SE,126,6.0,14.0,69,0.00,,,0.00,WUHU216DAVISVP2,2013-02-18 04:30:00,
2013-02-17 22:35:00,62.3,52.5,30.00,SE,141,5.0,15.0,70,0.00,,,0.00,WUHU216DAVISVP2,2013-02-18 04:35:00,
2013-02-17 22:40:00,62.3,52.1,30.00,SE,131,6.0,15.0,69,0.00,,,0.00,WUHU216DAVISVP2,2013-02-18 04:40:00,
2013-02-17 22:45:00,62.3,52.5,30.00,SSE,147,3.0,15.0,70,0.00,,,0.00,WUHU216DAVISVP2,2013-02-18 04:45:00,
2013-02-17 22:50:00,62.3,52.5,30.00,SSE,168,4.0,15.0,70,0.00,,,0.00,WUHU216DAVISVP2,2013-02-18 04:50:00,
2013-02-17 22:55:00,62.3,52.5,30.00,SE,133,4.0,14.0,70,0.00,,,0.00,WUHU216DAVISVP2,2013-02-18 04:55:00,
2013-02-17 23:00:00,62.3,52.5,29.99,SE,141,4.0,14.0,70,0.00,,,0.00,WUHU216DAVISVP2,2013-02-18 05:00:00,
2013-02-17 23:05:00,62.4,52.6,29.99,SSE,162,3.0,14.0,70,0.00,,,0.00,WUHU216DAVISVP2,2013-02-18 05:05:00,
2013-02-17 23:10:00,62.5,52.7,30.00,SE,138,5.0,14.0,70,0.00,,,0.00,WUHU216DAVISVP2,2013-02-18 05:10:00,
2013-02-17 23:15:00,62.4,53.0,30.00,SE,130,3.0,13.0,71,0.00,,,0.00,WUHU216DAVISVP2,2013-02-18 05:15:00,
2013-02-17 23:20:00,62.5,53.1,29.99,SE,145,7.0,16.0,71,0.00,,,0.00,WUHU216DAVISVP2,2013-02-18 05:20:00,
2013-02-17 23:25:00,62.5,53.1,29.99,SSE,158,9.0,16.0,71,0.00,,,0.00,WUHU216DAVISVP2,2013-02-18 05:25:00,
2013-02-17 23:30:00,62.5,53.1,29.99,SE,136,8.0,16.0,71,0.00,,,0.00,WUHU216DAVISVP2,2013-02-18 05:30:00,
2013-02-17 23:35:00,62.5,53.1,29.99,SE,125,6.0,16.0,71,0.00,,,0.00,WUHU216DAVISVP2,2013-02-18 05:35:00,
2013-02-17 23:40:00,62.5,53.1,29.99,SE,133,6.0,14.0,71,0.00,,,0.00,WUHU216DAVISVP2,2013-02-18 05:40:00,
2013-02-17 23:45:00,62.4,53.4,29.98,SSE,147,4.0,14.0,72,0.00,,,0.00,WUHU216DAVISVP2,2013-02-18 05:45:00,
2013-02-17 23:50:00,62.5,53.5,29.98,SE,145,5.0,14.0,72,0.00,,,0.00,WUHU216DAVISVP2,2013-02-18 05:50:00,
2013-02-17 23:55:00,62.5,53.5,29.98,SSE,158,6.0,14.0,72,0.00,,,0.00,WUHU216DAVISVP2,2013-02-18 05:55:00,